createdAt,value
2022-10-17T00:00:07.980Z,1011.26
2022-10-17T00:01:08.026Z,1011.25
2022-10-17T00:02:07.972Z,1011.23
2022-10-17T00:03:07.945Z,1011.21
2022-10-17T00:04:07.943Z,1011.20
2022-10-17T00:05:07.917Z,1011.18
2022-10-17T00:06:07.917Z,1011.12
2022-10-17T00:07:07.907Z,1011.20
2022-10-17T00:08:07.891Z,1011.21
2022-10-17T00:09:07.875Z,1011.20
2022-10-17T00:10:07.880Z,1011.16
2022-10-17T00:11:07.856Z,1011.22
2022-10-17T00:12:07.835Z,1011.20
2022-10-17T00:13:07.845Z,1011.08
2022-10-17T00:14:07.837Z,1011.09
2022-10-17T00:15:07.826Z,1011.17
2022-10-17T00:16:07.801Z,1011.07
2022-10-17T00:17:07.786Z,1011.07
2022-10-17T00:18:07.793Z,1011.15
2022-10-17T00:19:07.777Z,1011.22
2022-10-17T00:20:07.749Z,1011.17
2022-10-17T00:21:07.748Z,1011.20
2022-10-17T00:22:07.743Z,1011.26
2022-10-17T00:23:07.721Z,1011.20
2022-10-17T00:24:07.728Z,1011.15
2022-10-17T00:25:07.702Z,1011.11
2022-10-17T00:26:07.691Z,1011.15
2022-10-17T00:27:07.675Z,1011.04
2022-10-17T00:28:07.667Z,1011.08
2022-10-17T00:29:07.698Z,1011.07
2022-10-17T00:30:07.687Z,1011.11
2022-10-17T00:31:07.630Z,1011.13
2022-10-17T00:32:07.638Z,1011.06
2022-10-17T00:33:07.623Z,1011.09
2022-10-17T00:34:07.605Z,1011.13
2022-10-17T00:35:07.590Z,1011.13
2022-10-17T00:36:07.578Z,1011.19
2022-10-17T00:37:07.568Z,1011.19
2022-10-17T00:38:07.577Z,1011.05
2022-10-17T00:39:07.561Z,1011.08
2022-10-17T00:40:07.530Z,1011.03
2022-10-17T00:41:07.519Z,1011.03
2022-10-17T00:42:07.505Z,1011.11
2022-10-17T00:43:07.501Z,1011.01
2022-10-17T00:44:07.491Z,1010.98
2022-10-17T00:45:07.479Z,1010.92
2022-10-17T00:46:07.485Z,1011.01
2022-10-17T00:47:07.457Z,1010.98
2022-10-17T00:48:07.438Z,1011.02
2022-10-17T00:49:07.446Z,1011.03
2022-10-17T00:50:07.421Z,1011.02
2022-10-17T00:51:07.410Z,1011.03
2022-10-17T00:52:07.408Z,1011.04
2022-10-17T00:53:07.418Z,1011.00
2022-10-17T00:54:07.390Z,1010.95
2022-10-17T00:55:07.379Z,1010.94
2022-10-17T00:56:07.354Z,1010.91
2022-10-17T00:57:07.338Z,1010.87
2022-10-17T00:58:07.334Z,1010.84
2022-10-17T00:59:07.325Z,1010.86
2022-10-17T01:00:07.343Z,1010.81
2022-10-17T01:01:07.350Z,1010.76
2022-10-17T01:02:07.304Z,1010.80
2022-10-17T01:03:07.278Z,1010.78
2022-10-17T01:04:07.264Z,1010.77
2022-10-17T01:05:07.251Z,1010.74
2022-10-17T01:06:07.281Z,1010.73
2022-10-17T01:07:07.227Z,1010.73
2022-10-17T01:08:07.223Z,1010.76
2022-10-17T01:09:07.208Z,1010.74
2022-10-17T01:10:07.202Z,1010.68
2022-10-17T01:11:07.202Z,1010.71
2022-10-17T01:12:07.206Z,1010.72
2022-10-17T01:13:07.165Z,1010.73
2022-10-17T01:14:07.161Z,1010.73
2022-10-17T01:15:07.145Z,1010.66
2022-10-17T01:16:07.133Z,1010.68
2022-10-17T01:17:07.220Z,1010.67
2022-10-17T01:18:07.129Z,1010.70
2022-10-17T01:19:07.100Z,1010.71
2022-10-17T01:20:07.090Z,1010.66
2022-10-17T01:21:07.089Z,1010.69
2022-10-17T01:22:07.070Z,1010.69
2022-10-17T01:23:07.059Z,1010.68
2022-10-17T01:24:07.048Z,1010.66
2022-10-17T01:25:07.031Z,1010.68
2022-10-17T01:26:07.049Z,1010.69
2022-10-17T01:27:07.024Z,1010.72
2022-10-17T01:28:07.007Z,1010.68
2022-10-17T01:29:06.994Z,1010.70
2022-10-17T01:30:06.977Z,1010.71
2022-10-17T01:31:06.962Z,1010.70
2022-10-17T01:32:06.961Z,1010.65
2022-10-17T01:33:06.962Z,1010.76
2022-10-17T01:34:06.953Z,1010.70
2022-10-17T01:35:06.928Z,1010.71
2022-10-17T01:36:06.911Z,1010.64
2022-10-17T01:37:06.916Z,1010.71
2022-10-17T01:38:06.891Z,1010.62
2022-10-17T01:39:06.876Z,1010.61
2022-10-17T01:40:06.868Z,1010.68
2022-10-17T01:41:06.851Z,1010.66
2022-10-17T01:42:06.858Z,1010.65
2022-10-17T01:43:06.841Z,1010.65
2022-10-17T01:44:06.820Z,1010.63
2022-10-17T01:45:06.817Z,1010.62
2022-10-17T01:46:06.800Z,1010.59
2022-10-17T01:47:06.803Z,1010.54
2022-10-17T01:48:06.791Z,1010.59
2022-10-17T01:49:06.765Z,1010.54
2022-10-17T01:50:06.787Z,1010.57
2022-10-17T01:51:06.758Z,1010.48
2022-10-17T01:52:06.741Z,1010.51
2022-10-17T01:53:06.724Z,1010.47
2022-10-17T01:54:06.713Z,1010.53
2022-10-17T01:55:06.699Z,1010.51
2022-10-17T01:56:06.711Z,1010.51
2022-10-17T01:57:06.678Z,1010.55
2022-10-17T01:58:06.666Z,1010.53
2022-10-17T01:59:06.652Z,1010.56
2022-10-17T02:00:06.649Z,1010.50
2022-10-17T02:01:06.691Z,1010.54
2022-10-17T02:02:06.643Z,1010.53
2022-10-17T02:03:06.613Z,1010.52
2022-10-17T02:04:06.602Z,1010.48
2022-10-17T02:05:06.587Z,1010.50
2022-10-17T02:06:06.598Z,1010.43
2022-10-17T02:07:06.597Z,1010.46
2022-10-17T02:08:06.565Z,1010.42
2022-10-17T02:09:06.543Z,1010.47
2022-10-17T02:10:06.538Z,1010.37
2022-10-17T02:11:06.520Z,1010.32
2022-10-17T02:12:06.515Z,1010.29
2022-10-17T02:13:06.513Z,1010.30
2022-10-17T02:14:06.529Z,1010.27
2022-10-17T02:15:06.494Z,1010.36
2022-10-17T02:16:06.470Z,1010.27
2022-10-17T02:17:06.466Z,1010.31
2022-10-17T02:18:06.447Z,1010.33
2022-10-17T02:19:06.437Z,1010.34
2022-10-17T02:20:06.423Z,1010.35
2022-10-17T02:21:06.429Z,1010.31
2022-10-17T02:22:06.432Z,1010.29
2022-10-17T02:23:06.419Z,1010.31
2022-10-17T02:24:06.382Z,1010.32
2022-10-17T02:25:06.370Z,1010.23
2022-10-17T02:26:06.355Z,1010.31
2022-10-17T02:27:06.383Z,1010.23
2022-10-17T02:28:06.341Z,1010.27
2022-10-17T02:29:06.329Z,1010.23
2022-10-17T02:30:06.313Z,1010.21
2022-10-17T02:31:06.304Z,1010.25
2022-10-17T02:32:06.313Z,1010.28
2022-10-17T02:33:06.297Z,1010.23
2022-10-17T02:34:06.273Z,1010.22
2022-10-17T02:35:06.274Z,1010.20
2022-10-17T02:36:06.250Z,1010.23
2022-10-17T02:37:06.234Z,1010.22
2022-10-17T02:38:06.257Z,1010.22
2022-10-17T02:39:06.211Z,1010.19
2022-10-17T02:40:06.225Z,1010.19
2022-10-17T02:41:06.189Z,1010.17
2022-10-17T02:42:06.186Z,1010.18
2022-10-17T02:43:06.204Z,1010.18
2022-10-17T02:44:06.164Z,1010.26
2022-10-17T02:45:06.163Z,1010.25
2022-10-17T02:46:06.140Z,1010.24
2022-10-17T02:47:06.130Z,1010.21
2022-10-17T02:48:06.144Z,1010.26
2022-10-17T02:49:06.107Z,1010.13
2022-10-17T02:50:06.093Z,1010.19
2022-10-17T02:51:06.082Z,1010.19
2022-10-17T02:52:06.068Z,1010.24
2022-10-17T02:53:06.058Z,1010.31
2022-10-17T02:54:06.086Z,1010.24
2022-10-17T02:55:06.039Z,1010.26
2022-10-17T02:56:06.038Z,1010.30
2022-10-17T02:57:06.032Z,1010.27
2022-10-17T02:58:06.007Z,1010.27
2022-10-17T02:59:05.993Z,1010.30
2022-10-17T03:00:05.990Z,1010.21
2022-10-17T03:01:06.060Z,1010.26
2022-10-17T03:02:05.977Z,1010.22
2022-10-17T03:03:05.971Z,1010.26
2022-10-17T03:04:05.959Z,1010.21
2022-10-17T03:05:05.946Z,1010.21
2022-10-17T03:06:05.916Z,1010.24
2022-10-17T03:07:05.916Z,1010.16
2022-10-17T03:08:05.902Z,1010.16
2022-10-17T03:09:05.882Z,1010.20
2022-10-17T03:10:05.895Z,1010.15
2022-10-17T03:11:05.866Z,1010.22
2022-10-17T03:12:05.853Z,1010.19
2022-10-17T03:13:05.845Z,1010.16
2022-10-17T03:14:05.853Z,1010.20
2022-10-17T03:15:05.840Z,1010.22
2022-10-17T03:16:05.851Z,1010.21
2022-10-17T03:17:05.800Z,1010.24
2022-10-17T03:18:05.789Z,1010.24
2022-10-17T03:19:05.781Z,1010.31
2022-10-17T03:20:05.763Z,1010.29
2022-10-17T03:21:05.757Z,1010.27
2022-10-17T03:22:05.740Z,1010.26
2022-10-17T03:23:05.751Z,1010.24
2022-10-17T03:24:05.715Z,1010.27
2022-10-17T03:25:05.704Z,1010.31
2022-10-17T03:26:05.728Z,1010.23
2022-10-17T03:27:05.678Z,1010.23
2022-10-17T03:28:05.693Z,1010.20
2022-10-17T03:29:05.687Z,1010.17
2022-10-17T03:30:05.652Z,1010.19
2022-10-17T03:31:05.653Z,1010.21
2022-10-17T03:32:05.625Z,1010.19
2022-10-17T03:33:05.636Z,1010.22
2022-10-17T03:34:05.608Z,1010.23
2022-10-17T03:35:05.651Z,1010.26
2022-10-17T03:36:05.591Z,1010.30
2022-10-17T03:37:05.607Z,1010.25
2022-10-17T03:38:05.572Z,1010.26
2022-10-17T03:39:05.559Z,1010.25
2022-10-17T03:40:05.537Z,1010.24
2022-10-17T03:41:05.533Z,1010.21
2022-10-17T03:42:05.574Z,1010.17
2022-10-17T03:43:05.505Z,1010.18
2022-10-17T03:44:05.499Z,1010.16
2022-10-17T03:45:05.496Z,1010.21
2022-10-17T03:46:05.540Z,1010.20
2022-10-17T03:47:08.101Z,1010.25
2022-10-17T03:48:06.456Z,1010.27
2022-10-17T03:49:05.433Z,1010.29
2022-10-17T03:50:05.425Z,1010.31
2022-10-17T03:51:05.438Z,1010.32
2022-10-17T03:52:05.402Z,1010.29
2022-10-17T03:53:05.393Z,1010.33
2022-10-17T03:54:05.387Z,1010.27
2022-10-17T03:55:05.369Z,1010.34
2022-10-17T03:56:05.377Z,1010.32
2022-10-17T03:57:05.372Z,1010.35
2022-10-17T03:58:05.357Z,1010.32
2022-10-17T03:59:05.326Z,1010.36
2022-10-17T04:00:05.318Z,1010.40
2022-10-17T04:01:05.376Z,1010.39
2022-10-17T04:02:05.292Z,1010.41
2022-10-17T04:03:05.291Z,1010.36
2022-10-17T04:04:05.299Z,1010.40
2022-10-17T04:05:05.263Z,1010.37
2022-10-17T04:06:05.253Z,1010.40
2022-10-17T04:07:05.248Z,1010.42
2022-10-17T04:08:05.235Z,1010.43
2022-10-17T04:09:05.214Z,1010.42
2022-10-17T04:10:05.209Z,1010.44
2022-10-17T04:11:05.217Z,1010.40
2022-10-17T04:12:05.190Z,1010.41
2022-10-17T04:13:05.167Z,1010.43
2022-10-17T04:14:05.182Z,1010.49
2022-10-17T04:15:05.166Z,1010.41
2022-10-17T04:16:05.139Z,1010.44
2022-10-17T04:17:05.134Z,1010.44
2022-10-17T04:19:05.118Z,1010.42
2022-10-17T04:20:05.110Z,1010.46
2022-10-17T04:21:05.097Z,1010.43
2022-10-17T04:22:05.091Z,1010.48
2022-10-17T04:23:05.069Z,1010.50
2022-10-17T04:24:05.052Z,1010.45
2022-10-17T04:25:05.059Z,1010.45
2022-10-17T04:26:05.030Z,1010.41
2022-10-17T04:27:05.025Z,1010.45
2022-10-17T04:28:05.011Z,1010.45
2022-10-17T04:29:05.012Z,1010.46
2022-10-17T04:30:05.023Z,1010.41
2022-10-17T04:31:05.000Z,1010.35
2022-10-17T04:32:04.974Z,1010.42
2022-10-17T04:33:04.958Z,1010.40
2022-10-17T04:34:04.940Z,1010.43
2022-10-17T04:35:04.936Z,1010.40
2022-10-17T04:36:04.915Z,1010.39
2022-10-17T04:37:04.915Z,1010.42
2022-10-17T04:38:04.895Z,1010.40
2022-10-17T04:39:04.999Z,1010.39
2022-10-17T04:40:04.926Z,1010.34
2022-10-17T04:41:04.875Z,1010.36
2022-10-17T04:42:05.387Z,1010.36
2022-10-17T04:43:04.873Z,1010.37
2022-10-17T04:44:04.854Z,1010.41
2022-10-17T04:45:04.820Z,1010.36
2022-10-17T04:46:04.837Z,1010.28
2022-10-17T04:47:04.793Z,1010.29
2022-10-17T04:48:04.785Z,1010.28
2022-10-17T04:49:04.783Z,1010.22
2022-10-17T04:50:04.769Z,1010.20
2022-10-17T04:51:04.762Z,1010.29
2022-10-17T04:52:04.740Z,1010.24
2022-10-17T04:53:04.726Z,1010.24
2022-10-17T04:54:04.718Z,1010.19
2022-10-17T04:55:04.712Z,1010.17
2022-10-17T04:56:04.725Z,1010.21
2022-10-17T04:57:04.691Z,1010.26
2022-10-17T04:58:04.675Z,1010.28
2022-10-17T04:59:04.661Z,1010.16
2022-10-17T05:00:04.743Z,1010.16
2022-10-17T05:01:04.683Z,1010.14
2022-10-17T05:02:04.663Z,1010.19
2022-10-17T05:03:04.652Z,1010.15
2022-10-17T05:04:04.617Z,1010.15
2022-10-17T05:05:04.595Z,1010.11
2022-10-17T05:06:04.596Z,1010.16
2022-10-17T05:07:04.602Z,1010.12
2022-10-17T05:08:04.579Z,1010.13
2022-10-17T05:09:04.553Z,1010.13
2022-10-17T05:10:04.547Z,1010.18
2022-10-17T05:11:04.562Z,1010.14
2022-10-17T05:12:06.723Z,1010.22
2022-10-17T05:13:05.520Z,1010.19
2022-10-17T05:14:04.495Z,1010.22
2022-10-17T05:15:04.491Z,1010.21
2022-10-17T05:16:04.483Z,1010.20
2022-10-17T05:17:04.521Z,1010.20
2022-10-17T05:18:04.471Z,1010.17
2022-10-17T05:19:04.467Z,1010.23
2022-10-17T05:20:04.436Z,1010.22
2022-10-17T05:21:04.431Z,1010.24
2022-10-17T05:22:04.424Z,1010.20
2022-10-17T05:23:04.411Z,1010.24
2022-10-17T05:24:04.404Z,1010.26
2022-10-17T05:25:04.406Z,1010.21
2022-10-17T05:26:04.371Z,1010.21
2022-10-17T05:27:04.354Z,1010.16
2022-10-17T05:28:04.357Z,1010.20
2022-10-17T05:29:04.482Z,1010.20
2022-10-17T05:30:04.349Z,1010.28
2022-10-17T05:31:04.317Z,1010.35
2022-10-17T05:32:04.302Z,1010.29
2022-10-17T05:33:04.299Z,1010.29
2022-10-17T05:34:04.296Z,1010.29
2022-10-17T05:35:04.280Z,1010.37
2022-10-17T05:36:04.253Z,1010.30
2022-10-17T05:37:04.257Z,1010.37
2022-10-17T05:38:04.261Z,1010.38
2022-10-17T05:39:04.230Z,1010.44
2022-10-17T05:40:04.216Z,1010.45
2022-10-17T05:41:04.198Z,1010.49
2022-10-17T05:42:04.203Z,1010.53
2022-10-17T05:43:04.183Z,1010.57
2022-10-17T05:44:05.635Z,1010.60
2022-10-17T05:45:04.171Z,1010.53
2022-10-17T05:46:04.167Z,1010.57
2022-10-17T05:47:04.165Z,1010.59
2022-10-17T05:48:04.135Z,1010.58
2022-10-17T05:49:14.703Z,1010.61
2022-10-17T05:50:05.115Z,1010.52
2022-10-17T05:51:04.090Z,1010.54
2022-10-17T05:52:04.087Z,1010.57
2022-10-17T05:53:04.100Z,1010.53
2022-10-17T05:54:04.051Z,1010.55
2022-10-17T05:55:04.046Z,1010.57
2022-10-17T05:56:04.034Z,1010.55
2022-10-17T05:57:04.023Z,1010.59
2022-10-17T05:58:04.015Z,1010.58
2022-10-17T05:59:04.016Z,1010.52
2022-10-17T06:00:03.990Z,1010.58
2022-10-17T06:01:04.478Z,1010.65
2022-10-17T06:02:04.007Z,1010.68
2022-10-17T06:03:03.951Z,1010.71
2022-10-17T06:04:03.948Z,1010.69
2022-10-17T06:05:03.940Z,1010.73
2022-10-17T06:06:03.938Z,1010.75
2022-10-17T06:07:03.916Z,1010.73
2022-10-17T06:08:03.899Z,1010.69
2022-10-17T06:09:03.897Z,1010.77
2022-10-17T06:10:03.887Z,1010.73
2022-10-17T06:11:06.152Z,1010.74
2022-10-17T06:12:04.858Z,1010.81
2022-10-17T06:13:03.840Z,1010.77
2022-10-17T06:14:03.834Z,1010.75
2022-10-17T06:15:03.829Z,1010.81
2022-10-17T06:16:03.810Z,1010.81
2022-10-17T06:17:03.818Z,1010.72
2022-10-17T06:18:03.796Z,1010.78
2022-10-17T06:19:03.781Z,1010.72
2022-10-17T06:20:03.762Z,1010.72
2022-10-17T06:21:03.762Z,1010.77
2022-10-17T06:22:03.760Z,1010.75
2022-10-17T06:23:03.736Z,1010.75
2022-10-17T06:24:03.718Z,1010.81
2022-10-17T06:25:03.705Z,1010.87
2022-10-17T06:26:03.697Z,1010.87
2022-10-17T06:27:06.776Z,1010.86
2022-10-17T06:28:04.691Z,1010.89
2022-10-17T06:29:03.760Z,1010.87
2022-10-17T06:30:03.660Z,1010.97
2022-10-17T06:31:03.640Z,1010.89
2022-10-17T06:32:03.637Z,1011.00
2022-10-17T06:33:03.632Z,1010.97
2022-10-17T06:34:03.621Z,1010.98
2022-10-17T06:35:03.596Z,1010.99
2022-10-17T06:36:03.588Z,1011.01
2022-10-17T06:37:03.584Z,1011.09
2022-10-17T06:38:03.583Z,1011.11
2022-10-17T06:39:03.555Z,1011.12
2022-10-17T06:40:03.562Z,1011.15
2022-10-17T06:41:03.534Z,1011.18
2022-10-17T06:42:03.537Z,1011.17
2022-10-17T06:43:03.520Z,1011.17
2022-10-17T06:44:03.503Z,1011.24
2022-10-17T06:45:03.504Z,1011.24
2022-10-17T06:46:03.477Z,1011.27
2022-10-17T06:47:03.471Z,1011.29
2022-10-17T06:48:03.455Z,1011.32
2022-10-17T06:49:03.463Z,1011.30
2022-10-17T06:50:03.445Z,1011.36
2022-10-17T06:51:03.419Z,1011.29
2022-10-17T06:52:03.403Z,1011.27
2022-10-17T06:53:03.399Z,1011.27
2022-10-17T06:54:03.401Z,1011.31
2022-10-17T06:56:03.389Z,1011.28
2022-10-17T06:57:03.356Z,1011.26
2022-10-17T06:58:03.338Z,1011.31
2022-10-17T06:59:03.356Z,1011.29
2022-10-17T07:00:03.339Z,1011.27
2022-10-17T07:01:03.414Z,1011.28
2022-10-17T07:02:03.325Z,1011.28
2022-10-17T07:03:03.306Z,1011.26
2022-10-17T07:04:03.293Z,1011.22
2022-10-17T07:05:03.279Z,1011.22
2022-10-17T07:06:03.277Z,1011.23
2022-10-17T07:07:03.312Z,1011.25
2022-10-17T07:08:03.233Z,1011.19
2022-10-17T07:09:03.251Z,1011.22
2022-10-17T07:10:03.231Z,1011.24
2022-10-17T07:11:03.196Z,1011.30
2022-10-17T07:12:03.227Z,1011.30
2022-10-17T07:13:03.181Z,1011.30
2022-10-17T07:14:03.159Z,1011.31
2022-10-17T07:15:03.150Z,1011.42
2022-10-17T07:16:03.144Z,1011.41
2022-10-17T07:17:03.129Z,1011.43
2022-10-17T07:18:03.130Z,1011.43
2022-10-17T07:19:03.113Z,1011.40
2022-10-17T07:20:03.110Z,1011.39
2022-10-17T07:21:03.085Z,1011.38
2022-10-17T07:22:03.083Z,1011.44
2022-10-17T07:23:03.076Z,1011.47
2022-10-17T07:24:03.069Z,1011.46
2022-10-17T07:25:03.058Z,1011.51
2022-10-17T07:26:03.055Z,1011.51
2022-10-17T07:27:03.017Z,1011.49
2022-10-17T07:28:03.027Z,1011.52
2022-10-17T07:29:03.070Z,1011.58
2022-10-17T07:30:02.992Z,1011.50
2022-10-17T07:31:02.995Z,1011.46
2022-10-17T07:32:02.969Z,1011.49
2022-10-17T07:33:03.572Z,1011.49
2022-10-17T07:34:02.957Z,1011.50
2022-10-17T07:35:02.927Z,1011.53
2022-10-17T07:36:02.946Z,1011.52
2022-10-17T07:37:02.916Z,1011.46
2022-10-17T07:38:02.891Z,1011.50
2022-10-17T07:39:02.905Z,1011.55
2022-10-17T07:40:02.881Z,1011.56
2022-10-17T07:41:02.888Z,1011.58
2022-10-17T07:42:02.864Z,1011.58
2022-10-17T07:43:02.843Z,1011.62
2022-10-17T07:44:02.854Z,1011.61
2022-10-17T07:45:02.813Z,1011.61
2022-10-17T07:46:02.797Z,1011.57
2022-10-17T07:47:02.793Z,1011.64
2022-10-17T07:48:02.777Z,1011.60
2022-10-17T07:49:02.783Z,1011.62
2022-10-17T07:50:02.758Z,1011.59
2022-10-17T07:51:02.781Z,1011.64
2022-10-17T07:52:02.745Z,1011.62
2022-10-17T07:53:02.725Z,1011.57
2022-10-17T07:54:02.760Z,1011.56
2022-10-17T07:55:02.699Z,1011.51
2022-10-17T07:56:02.686Z,1011.55
2022-10-17T07:57:02.680Z,1011.42
2022-10-17T07:58:02.696Z,1011.44
2022-10-17T07:59:05.249Z,1011.43
2022-10-17T08:00:03.664Z,1011.49
2022-10-17T08:02:02.629Z,1011.46
2022-10-17T08:03:02.623Z,1011.50
2022-10-17T08:04:02.677Z,1011.53
2022-10-17T08:05:02.605Z,1011.49
2022-10-17T08:06:02.583Z,1011.51
2022-10-17T08:07:11.926Z,1011.61
2022-10-17T08:08:03.579Z,1011.66
2022-10-17T08:09:02.552Z,1011.52
2022-10-17T08:10:02.636Z,1011.55
2022-10-17T08:11:02.553Z,1011.56
2022-10-17T08:12:02.514Z,1011.56
2022-10-17T08:13:02.502Z,1011.58
2022-10-17T08:14:02.507Z,1011.56
2022-10-17T08:15:02.483Z,1011.52
2022-10-17T08:16:02.544Z,1011.54
2022-10-17T08:17:02.485Z,1011.56
2022-10-17T08:18:02.468Z,1011.59
2022-10-17T08:19:02.507Z,1011.50
2022-10-17T08:20:02.423Z,1011.53
2022-10-17T08:21:02.419Z,1011.53
2022-10-17T08:22:02.434Z,1011.49
2022-10-17T08:23:02.403Z,1011.59
2022-10-17T08:24:02.384Z,1011.54
2022-10-17T08:25:02.376Z,1011.45
2022-10-17T08:26:02.368Z,1011.53
2022-10-17T08:27:02.356Z,1011.55
2022-10-17T08:28:02.404Z,1011.52
2022-10-17T08:29:02.432Z,1011.60
2022-10-17T08:30:02.411Z,1011.62
2022-10-17T08:31:02.328Z,1011.61
2022-10-17T08:32:03.671Z,1011.58
2022-10-17T08:33:02.296Z,1011.68
2022-10-17T08:34:02.270Z,1011.67
2022-10-17T08:35:02.259Z,1011.67
2022-10-17T08:36:02.262Z,1011.65
2022-10-17T08:37:02.275Z,1011.70
2022-10-17T08:38:02.234Z,1011.69
2022-10-17T08:39:02.231Z,1011.64
2022-10-17T08:40:02.197Z,1011.70
2022-10-17T08:41:02.199Z,1011.61
2022-10-17T08:42:02.180Z,1011.63
2022-10-17T08:43:02.180Z,1011.71
2022-10-17T08:44:02.164Z,1011.63
2022-10-17T08:45:02.153Z,1011.62
2022-10-17T08:46:02.250Z,1011.70
2022-10-17T08:47:02.138Z,1011.71
2022-10-17T08:48:02.111Z,1011.80
2022-10-17T08:49:02.103Z,1011.72
2022-10-17T08:50:02.120Z,1011.76
2022-10-17T08:51:02.085Z,1011.80
2022-10-17T08:52:02.080Z,1011.85
2022-10-17T08:53:02.071Z,1011.84
2022-10-17T08:54:02.050Z,1011.87
2022-10-17T08:55:02.051Z,1011.93
2022-10-17T08:56:02.030Z,1011.89
2022-10-17T08:57:02.019Z,1011.89
2022-10-17T08:58:02.010Z,1011.98
2022-10-17T08:59:01.987Z,1011.88
2022-10-17T09:00:01.976Z,1011.92
2022-10-17T09:01:01.970Z,1011.94
2022-10-17T09:02:01.975Z,1011.99
2022-10-17T09:03:02.048Z,1011.97
2022-10-17T09:04:01.931Z,1012.06
2022-10-17T09:05:01.958Z,1011.98
2022-10-17T09:06:01.917Z,1012.04
2022-10-17T09:07:01.910Z,1012.08
2022-10-17T09:08:01.912Z,1012.12
2022-10-17T09:09:01.889Z,1012.16
2022-10-17T09:10:02.010Z,1012.14
2022-10-17T09:11:01.899Z,1012.15
2022-10-17T09:12:01.843Z,1012.10
2022-10-17T09:13:06.877Z,1012.04
2022-10-17T09:14:02.829Z,1012.11
2022-10-17T09:15:01.838Z,1012.14
2022-10-17T09:16:01.797Z,1012.04
2022-10-17T09:17:01.794Z,1012.08
2022-10-17T09:18:01.797Z,1012.15
2022-10-17T09:19:01.782Z,1012.13
2022-10-17T09:20:01.751Z,1012.11
2022-10-17T09:21:01.772Z,1012.12
2022-10-17T09:22:01.737Z,1012.21
2022-10-17T09:23:01.725Z,1012.25
2022-10-17T09:24:08.870Z,1012.25
2022-10-17T09:25:02.704Z,1012.25
2022-10-17T09:26:01.688Z,1012.29
2022-10-17T09:27:01.694Z,1012.25
2022-10-17T09:28:01.666Z,1012.26
2022-10-17T09:29:01.787Z,1012.25
2022-10-17T09:30:01.673Z,1012.33
2022-10-17T09:31:01.633Z,1012.41
2022-10-17T09:32:01.684Z,1012.39
2022-10-17T09:33:01.611Z,1012.42
2022-10-17T09:34:01.642Z,1012.47
2022-10-17T09:35:01.612Z,1012.45
2022-10-17T09:36:01.581Z,1012.48
2022-10-17T09:37:01.571Z,1012.55
2022-10-17T09:38:01.560Z,1012.51
2022-10-17T09:39:01.546Z,1012.56
2022-10-17T09:40:01.551Z,1012.62
2022-10-17T09:41:01.657Z,1012.62
2022-10-17T09:42:01.556Z,1012.64
2022-10-17T09:43:01.499Z,1012.59
2022-10-17T09:44:01.486Z,1012.54
2022-10-17T09:45:01.503Z,1012.58
2022-10-17T09:46:01.491Z,1012.59
2022-10-17T09:47:01.455Z,1012.69
2022-10-17T09:48:01.975Z,1012.70
2022-10-17T09:50:01.466Z,1012.86
2022-10-17T09:51:14.740Z,1012.82
2022-10-17T09:52:02.422Z,1012.81
2022-10-17T09:53:01.402Z,1012.84
2022-10-17T09:54:01.385Z,1012.77
2022-10-17T09:55:01.391Z,1012.83
2022-10-17T09:56:01.366Z,1012.79
2022-10-17T09:57:01.345Z,1012.80
2022-10-17T09:58:01.350Z,1012.82
2022-10-17T09:59:01.325Z,1012.83
2022-10-17T10:00:01.378Z,1012.91
2022-10-17T10:01:01.394Z,1012.93
2022-10-17T10:02:01.293Z,1012.97
2022-10-17T10:03:01.301Z,1013.05
2022-10-17T10:04:01.269Z,1012.99
2022-10-17T10:05:05.907Z,1013.04
2022-10-17T10:06:02.285Z,1013.00
2022-10-17T10:07:01.242Z,1013.01
2022-10-17T10:08:01.227Z,1013.01
2022-10-17T10:09:01.235Z,1013.11
2022-10-17T10:10:01.206Z,1013.00
2022-10-17T10:11:01.202Z,1012.99
2022-10-17T10:12:01.219Z,1012.98
2022-10-17T10:13:01.174Z,1012.96
2022-10-17T10:14:01.170Z,1013.13
2022-10-17T10:15:01.170Z,1013.19
2022-10-17T10:16:01.139Z,1013.16
2022-10-17T10:17:01.152Z,1013.18
2022-10-17T10:18:01.130Z,1013.22
2022-10-17T10:19:03.604Z,1013.19
2022-10-17T10:20:01.092Z,1013.20
2022-10-17T10:21:01.100Z,1013.12
2022-10-17T10:22:01.089Z,1013.16
2022-10-17T10:23:01.059Z,1013.19
2022-10-17T10:24:01.058Z,1013.15
2022-10-17T10:25:01.038Z,1013.20
2022-10-17T10:26:01.027Z,1013.12
2022-10-17T10:27:01.038Z,1013.24
2022-10-17T10:28:01.630Z,1013.26
2022-10-17T10:29:01.127Z,1013.22
2022-10-17T10:30:00.982Z,1013.28
2022-10-17T10:31:00.969Z,1013.35
2022-10-17T10:32:00.966Z,1013.45
2022-10-17T10:33:00.976Z,1013.51
2022-10-17T10:34:00.937Z,1013.55
2022-10-17T10:35:00.921Z,1013.54
2022-10-17T10:36:00.923Z,1013.54
2022-10-17T10:37:00.902Z,1013.49
2022-10-17T10:38:00.932Z,1013.61
2022-10-17T10:39:03.824Z,1013.67
2022-10-17T10:40:00.876Z,1013.71
2022-10-17T10:41:00.892Z,1013.67
2022-10-17T10:42:00.851Z,1013.84
2022-10-17T10:43:05.209Z,1013.99
2022-10-17T10:44:00.830Z,1014.03
2022-10-17T10:45:00.830Z,1014.15
2022-10-17T10:46:00.804Z,1014.27
2022-10-17T10:47:00.809Z,1014.47
2022-10-17T10:48:00.785Z,1014.47
2022-10-17T10:49:00.774Z,1014.45
2022-10-17T10:50:00.761Z,1014.34
2022-10-17T10:51:00.744Z,1014.08
2022-10-17T10:52:00.741Z,1013.95
2022-10-17T10:53:00.770Z,1014.07
2022-10-17T10:54:00.735Z,1014.07
2022-10-17T10:55:00.731Z,1013.95
2022-10-17T10:56:00.702Z,1013.91
2022-10-17T10:57:00.677Z,1013.82
2022-10-17T10:58:00.677Z,1013.87
2022-10-17T10:59:00.657Z,1013.73
2022-10-17T11:00:00.682Z,1013.82
2022-10-17T11:01:00.723Z,1013.75
2022-10-17T11:02:00.628Z,1013.72
2022-10-17T11:03:01.857Z,1013.62
2022-10-17T11:04:00.619Z,1013.63
2022-10-17T11:05:00.613Z,1013.59
2022-10-17T11:06:00.581Z,1013.59
2022-10-17T11:07:00.580Z,1013.56
2022-10-17T11:08:00.562Z,1013.64
2022-10-17T11:09:00.557Z,1013.35
2022-10-17T11:10:00.562Z,1013.27
2022-10-17T11:11:00.559Z,1013.23
2022-10-17T11:12:00.534Z,1013.34
2022-10-17T11:13:00.507Z,1013.56
2022-10-17T11:14:00.550Z,1013.57
2022-10-17T11:15:00.483Z,1013.60
2022-10-17T11:16:00.471Z,1013.73
2022-10-17T11:17:00.474Z,1013.81
2022-10-17T11:18:00.446Z,1013.93
2022-10-17T11:19:00.435Z,1014.02
2022-10-17T11:20:00.436Z,1014.06
2022-10-17T11:21:00.407Z,1013.97
2022-10-17T11:22:00.399Z,1014.03
2022-10-17T11:23:00.414Z,1014.07
2022-10-17T11:24:00.433Z,1014.09
2022-10-17T11:25:00.371Z,1014.16
2022-10-17T11:26:00.377Z,1014.09
2022-10-17T11:27:00.348Z,1014.09
2022-10-17T11:28:04.673Z,1014.10
2022-10-17T11:29:00.459Z,1014.07
2022-10-17T11:30:00.315Z,1014.04
2022-10-17T11:31:02.352Z,1014.07
2022-10-17T11:32:01.283Z,1013.96
2022-10-17T11:33:00.283Z,1013.89
2022-10-17T11:34:00.272Z,1013.93
2022-10-17T11:35:00.256Z,1013.90
2022-10-17T11:36:00.261Z,1013.91
2022-10-17T11:37:00.237Z,1013.85
2022-10-17T11:38:00.225Z,1013.85
2022-10-17T11:39:00.229Z,1013.81
2022-10-17T11:40:00.204Z,1013.80
2022-10-17T11:41:00.197Z,1013.85
2022-10-17T11:42:03.383Z,1013.76
2022-10-17T11:43:00.163Z,1013.83
2022-10-17T11:44:00.159Z,1013.97
2022-10-17T11:45:00.147Z,1014.07
2022-10-17T11:46:00.133Z,1014.08
2022-10-17T11:47:00.119Z,1014.15
2022-10-17T11:48:00.123Z,1014.14
2022-10-17T11:49:00.115Z,1014.10
2022-10-17T11:51:59.635Z,1014.11
2022-10-17T11:52:02.411Z,1014.11
2022-10-17T11:53:00.465Z,1014.13
2022-10-17T11:54:00.055Z,1014.15
2022-10-17T11:55:00.090Z,1014.20
2022-10-17T11:56:00.027Z,1014.28
2022-10-17T11:57:00.016Z,1014.30
2022-10-17T11:58:00.025Z,1014.38
2022-10-17T11:59:00.019Z,1014.39
2022-10-17T12:00:00.019Z,1014.38
2022-10-17T12:00:59.969Z,1014.35
2022-10-17T12:01:59.955Z,1014.36
2022-10-17T12:02:59.943Z,1014.37
2022-10-17T12:03:59.971Z,1014.28
2022-10-17T12:04:59.926Z,1014.03
2022-10-17T12:05:59.920Z,1013.98
2022-10-17T12:06:59.898Z,1014.12
2022-10-17T12:07:59.908Z,1014.15
2022-10-17T12:08:59.880Z,1014.13
2022-10-17T12:09:59.873Z,1014.10